Time;durP1;ratioP1;P1;durP2;ratioP2;P2;SDS_P1;SDS_P2;PMS_P1;PMS_P2;Temp;Humidity;BMP_temperature;BMP_pressure;BME280_temperature;BME280_humidity;BME280_pressure;Samples;Min_cycle;Max_cycle;Signal;HPM_P1;HPM_P2
2021/10/01 00:01:54;;;;;;;6.07;2.08;;;14.70;99.40;;;;;;5080141;28;20075;-68
2021/10/01 00:04:22;;;;;;;3.47;1.13;;;14.70;99.50;;;;;;5036896;28;20040;-68
2021/10/01 00:06:50;;;;;;;7.32;1.75;;;14.70;99.50;;;;;;5047862;28;20106;-68
2021/10/01 00:09:19;;;;;;;3.92;1.83;;;14.80;99.50;;;;;;5038093;28;20055;-69
2021/10/01 00:11:52;;;;;;;3.42;1.15;;;14.80;99.70;;;;;;5051391;28;20044;-69
2021/10/01 00:14:24;;;;;;;2.10;1.10;;;14.80;99.50;;;;;;5066756;28;20126;-68
2021/10/01 00:16:52;;;;;;;3.35;1.00;;;14.80;99.40;;;;;;5061466;28;20048;-68
2021/10/01 00:19:20;;;;;;;2.15;0.77;;;14.80;99.40;;;;;;5054233;28;20059;-68
2021/10/01 00:21:47;;;;;;;5.13;1.10;;;14.80;99.30;;;;;;5068625;28;20423;-68
2021/10/01 00:24:14;;;;;;;3.08;1.02;;;14.80;99.40;;;;;;5042506;28;20055;-68
2021/10/01 00:26:42;;;;;;;2.53;1.00;;;14.80;99.40;;;;;;5077850;28;20430;-69
2021/10/01 00:29:09;;;;;;;1.88;0.98;;;14.80;99.30;;;;;;5063056;28;20047;-68
2021/10/01 00:31:36;;;;;;;3.05;1.17;;;14.80;99.40;;;;;;5064630;28;20510;-68
2021/10/01 00:34:03;;;;;;;2.63;1.02;;;14.80;99.40;;;;;;5072510;28;20503;-67
2021/10/01 00:36:30;;;;;;;1.80;0.90;;;14.80;99.50;;;;;;5075173;28;20041;-67
2021/10/01 00:38:59;;;;;;;7.30;2.30;;;14.80;99.40;;;;;;5059458;28;20055;-67
2021/10/01 00:41:27;;;;;;;6.68;1.55;;;14.90;99.30;;;;;;5055159;28;20045;-68
2021/10/01 00:43:54;;;;;;;2.17;0.98;;;14.90;99.40;;;;;;5053936;28;20053;-68
2021/10/01 00:46:22;;;;;;;4.03;1.58;;;14.90;99.40;;;;;;5054910;28;20048;-68
2021/10/01 00:48:49;;;;;;;5.70;1.50;;;14.90;99.50;;;;;;5049920;28;20127;-68
2021/10/01 00:51:17;;;;;;;7.28;1.77;;;14.90;99.50;;;;;;5069321;28;20075;-67
2021/10/01 00:53:44;;;;;;;5.97;1.85;;;14.90;99.40;;;;;;5055555;28;20044;-68
2021/10/01 00:56:12;;;;;;;3.92;1.90;;;14.90;99.50;;;;;;5063440;28;20045;-68
2021/10/01 00:58:40;;;;;;;8.20;2.58;;;14.90;99.50;;;;;;5078428;28;20060;-67
2021/10/01 01:01:12;;;;;;;7.30;2.00;;;14.90;99.60;;;;;;5076369;28;20056;-67
2021/10/01 01:04:04;;;;;;;7.22;2.22;;;14.90;99.70;;;;;;5054001;28;20048;-67
2021/10/01 01:06:56;;;;;;;5.63;2.10;;;15.00;99.80;;;;;;5057112;28;20419;-68
2021/10/01 01:10:01;;;;;;;4.78;1.70;;;15.00;99.70;;;;;;5062047;28;20415;-68
2021/10/01 01:12:37;;;;;;;7.18;1.80;;;15.00;99.70;;;;;;5080617;28;20048;-67
2021/10/01 01:15:12;;;;;;;8.05;2.42;;;15.00;99.80;;;;;;5057136;28;20142;-67
2021/10/01 01:17:50;;;;;;;8.60;2.55;;;15.00;99.70;;;;;;5057980;28;20554;-67
2021/10/01 01:20:35;;;;;;;6.00;1.70;;;15.00;99.80;;;;;;5049336;28;20052;-69
2021/10/01 01:23:33;;;;;;;10.35;1.92;;;15.00;99.70;;;;;;5054563;28;20136;-67
2021/10/01 01:26:06;;;;;;;8.63;2.43;;;15.00;99.90;;;;;;5075766;28;20432;-68
2021/10/01 01:28:41;;;;;;;4.68;1.75;;;15.00;99.60;;;;;;5084665;28;20119;-68
2021/10/01 01:31:50;;;;;;;5.57;1.60;;;15.00;99.60;;;;;;5072716;28;20059;-68
2021/10/01 01:34:58;;;;;;;6.68;1.80;;;15.10;99.60;;;;;;5045151;28;20102;-68
2021/10/01 01:37:31;;;;;;;7.57;2.22;;;15.10;99.60;;;;;;4992130;28;20050;-68
2021/10/01 01:39:59;;;;;;;4.90;1.52;;;15.10;99.70;;;;;;5050855;28;20130;-68
2021/10/01 01:42:28;;;;;;;3.38;1.73;;;15.10;99.60;;;;;;5061173;28;20053;-68
2021/10/01 01:44:55;;;;;;;3.30;1.30;;;15.10;99.60;;;;;;5061278;28;20048;-68
2021/10/01 01:47:22;;;;;;;5.85;2.05;;;15.10;99.70;;;;;;5038476;28;20131;-68
2021/10/01 01:49:52;;;;;;;;;;;15.10;99.70;;;;;;5054343;28;20569;-67
2021/10/01 01:52:19;;;;;;;3.17;1.42;;;15.10;99.70;;;;;;5072843;28;20419;-67
2021/10/01 01:54:46;;;;;;;3.95;1.27;;;15.10;99.60;;;;;;5039780;28;20060;-68
2021/10/01 01:57:13;;;;;;;4.93;1.05;;;15.10;99.60;;;;;;5083890;28;20509;-67
2021/10/01 01:59:42;;;;;;;4.10;1.20;;;15.10;99.70;;;;;;5019702;28;20067;-67
2021/10/01 02:02:14;;;;;;;6.22;1.45;;;15.10;99.70;;;;;;5057448;28;20492;-67
2021/10/01 02:04:42;;;;;;;4.07;1.10;;;15.10;99.70;;;;;;5055889;28;20070;-67
2021/10/01 02:07:09;;;;;;;3.33;1.20;;;15.10;99.50;;;;;;5047684;28;20049;-68
2021/10/01 02:09:36;;;;;;;3.67;1.13;;;15.20;99.70;;;;;;5038318;28;20128;-68
2021/10/01 02:12:03;;;;;;;3.15;1.10;;;15.10;99.70;;;;;;5054484;28;20062;-69
2021/10/01 02:14:32;;;;;;;6.18;1.58;;;15.20;99.90;;;;;;5085269;28;20063;-68
2021/10/01 02:16:59;;;;;;;7.50;1.55;;;15.20;99.70;;;;;;5064375;28;20415;-66
2021/10/01 02:19:28;;;;;;;2.05;0.90;;;15.10;99.70;;;;;;5079283;28;20048;-66
2021/10/01 02:21:56;;;;;;;2.05;0.80;;;15.20;99.70;;;;;;5036227;28;20052;-68
2021/10/01 02:24:28;;;;;;;5.38;1.50;;;15.20;99.60;;;;;;5057668;28;20049;-68
2021/10/01 02:27:23;;;;;;;3.20;1.02;;;15.20;99.60;;;;;;5042941;28;20060;-67
2021/10/01 02:30:13;;;;;;;2.30;0.73;;;15.20;99.70;;;;;;5058190;28;20043;-67
2021/10/01 02:32:44;;;;;;;4.75;0.90;;;15.20;99.80;;;;;;5037378;28;20099;-68
2021/10/01 02:35:11;;;;;;;1.10;0.55;;;15.20;99.80;;;;;;5057058;28;20472;-67
2021/10/01 02:37:39;;;;;;;3.10;0.80;;;15.20;99.80;;;;;;5054869;28;20124;-67
2021/10/01 02:40:07;;;;;;;1.75;0.70;;;15.20;99.70;;;;;;5054833;28;20409;-67
2021/10/01 02:42:34;;;;;;;2.75;1.08;;;15.20;99.80;;;;;;5035323;28;20154;-67
2021/10/01 02:45:02;;;;;;;1.70;0.60;;;15.20;99.80;;;;;;5067083;28;20499;-68
2021/10/01 02:47:31;;;;;;;1.65;0.70;;;15.20;99.90;;;;;;5068798;28;20519;-67
2021/10/01 02:49:59;;;;;;;2.72;0.80;;;15.20;99.90;;;;;;5046237;28;20110;-67
2021/10/01 02:52:40;;;;;;;1.27;0.50;;;15.20;99.90;;;;;;5060557;28;20048;-67
2021/10/01 02:55:17;;;;;;;2.33;0.80;;;15.20;99.90;;;;;;5069039;28;20051;-66
2021/10/01 02:58:06;;;;;;;3.25;0.70;;;15.20;99.90;;;;;;5070788;28;20131;-67
2021/10/01 03:00:33;;;;;;;1.45;0.60;;;15.20;99.90;;;;;;5074096;28;20484;-68
2021/10/01 03:03:05;;;;;;;2.28;0.52;;;15.20;99.90;;;;;;5031338;28;20052;-68
2021/10/01 03:05:32;;;;;;;0.65;0.47;;;15.20;99.90;;;;;;5056243;28;20045;-67
2021/10/01 03:07:59;;;;;;;1.35;0.57;;;15.20;99.90;;;;;;5050510;28;20052;-67
2021/10/01 03:10:28;;;;;;;1.20;0.70;;;15.20;99.90;;;;;;5067116;28;20066;-68
2021/10/01 03:12:55;;;;;;;1.80;0.40;;;15.20;99.90;;;;;;5083839;28;20518;-67
2021/10/01 03:15:23;;;;;;;1.80;0.73;;;15.30;99.90;;;;;;5054097;28;20079;-68
2021/10/01 03:17:50;;;;;;;3.50;1.37;;;15.30;99.90;;;;;;5068497;28;20091;-67
2021/10/01 03:20:17;;;;;;;2.97;1.13;;;15.30;99.90;;;;;;5055960;28;20144;-67
2021/10/01 03:22:46;;;;;;;4.95;1.20;;;15.30;99.90;;;;;;5065955;28;20040;-68
2021/10/01 03:25:18;;;;;;;0.90;0.60;;;15.30;99.90;;;;;;5062109;28;20048;-67
2021/10/01 03:27:45;;;;;;;;;;;15.30;99.90;;;;;;5067266;28;20036;-67
2021/10/01 03:30:12;;;;;;;1.27;0.50;;;15.30;99.90;;;;;;5061885;28;19920;-67
2021/10/01 03:32:39;;;;;;;1.10;0.57;;;15.30;99.90;;;;;;5036800;28;20044;-67
2021/10/01 03:35:07;;;;;;;1.33;0.50;;;15.30;99.90;;;;;;5088593;28;20071;-67
2021/10/01 03:37:35;;;;;;;1.35;0.55;;;15.30;99.90;;;;;;5088515;28;20041;-68
2021/10/01 03:40:07;;;;;;;1.27;0.50;;;15.30;99.90;;;;;;5065622;28;20135;-67
2021/10/01 03:42:33;;;;;;;2.83;0.70;;;15.30;99.90;;;;;;5071100;28;20040;-68
2021/10/01 03:45:00;;;;;;;1.50;0.80;;;15.30;99.90;;;;;;5057693;28;20045;-68
2021/10/01 03:47:28;;;;;;;1.80;0.70;;;15.30;99.90;;;;;;5084925;28;20503;-67
2021/10/01 03:49:55;;;;;;;2.30;0.82;;;15.40;99.90;;;;;;5072068;28;20171;-67
2021/10/01 03:52:23;;;;;;;1.48;0.68;;;15.40;99.90;;;;;;5051351;28;20051;-67
2021/10/01 03:54:51;;;;;;;1.42;0.70;;;15.40;99.90;;;;;;5069443;28;20047;-67
2021/10/01 03:57:19;;;;;;;1.10;0.52;;;15.40;99.90;;;;;;5064494;28;20119;-67
2021/10/01 03:59:47;;;;;;;1.13;0.50;;;15.40;99.90;;;;;;5089895;28;20402;-68
2021/10/01 04:02:15;;;;;;;0.70;0.47;;;15.40;99.90;;;;;;5070502;28;20052;-68
2021/10/01 04:04:43;;;;;;;1.33;0.32;;;15.40;99.90;;;;;;5042198;28;20040;-68
2021/10/01 04:07:10;;;;;;;2.53;1.15;;;15.40;99.80;;;;;;5066411;28;20044;-67
2021/10/01 04:09:38;;;;;;;0.30;0.30;;;15.30;99.70;;;;;;5075800;28;20040;-68
2021/10/01 04:12:08;;;;;;;1.00;0.40;;;15.30;99.70;;;;;;5067581;28;20079;-67
2021/10/01 04:14:35;;;;;;;1.60;0.80;;;15.40;99.80;;;;;;5085739;28;20063;-67
2021/10/01 04:17:02;;;;;;;1.90;0.40;;;15.40;99.80;;;;;;5075682;28;20137;-67
2021/10/01 04:19:29;;;;;;;1.35;0.60;;;15.40;99.70;;;;;;5091041;28;20083;-68
2021/10/01 04:22:08;;;;;;;0.60;0.60;;;15.40;99.60;;;;;;5065591;28;20046;-67
2021/10/01 04:24:35;;;;;;;0.52;0.30;;;15.40;99.60;;;;;;5072375;28;20075;-67
2021/10/01 04:27:02;;;;;;;0.35;0.32;;;15.30;99.70;;;;;;5069636;28;20130;-68
2021/10/01 04:29:30;;;;;;;0.77;0.40;;;15.30;99.80;;;;;;5055342;28;20063;-68
2021/10/01 04:31:57;;;;;;;0.80;0.63;;;15.40;99.70;;;;;;5064526;28;20135;-68
2021/10/01 04:34:24;;;;;;;0.73;0.40;;;15.30;99.80;;;;;;5043764;28;20039;-68
2021/10/01 04:36:51;;;;;;;1.45;0.40;;;15.30;99.80;;;;;;5063798;28;20040;-67
2021/10/01 04:39:18;;;;;;;2.65;0.60;;;15.40;99.90;;;;;;5067779;28;20147;-66
2021/10/01 04:41:45;;;;;;;6.55;0.95;;;15.40;99.90;;;;;;5052396;28;20509;-67
2021/10/01 04:44:13;;;;;;;1.38;0.70;;;15.40;99.80;;;;;;5071844;28;20044;-67
2021/10/01 04:46:40;;;;;;;1.95;0.57;;;15.40;99.90;;;;;;5051891;28;20503;-67
2021/10/01 04:49:07;;;;;;;0.75;0.63;;;15.40;99.80;;;;;;5090589;28;20091;-67
2021/10/01 04:51:34;;;;;;;1.15;0.57;;;15.40;99.90;;;;;;5064368;28;20092;-67
2021/10/01 04:54:02;;;;;;;0.65;0.50;;;15.50;99.90;;;;;;5060577;28;20105;-66
2021/10/01 04:56:29;;;;;;;1.17;0.60;;;15.50;99.90;;;;;;5091757;28;20116;-66
2021/10/01 04:58:56;;;;;;;0.63;0.40;;;15.50;99.90;;;;;;5090720;28;20152;-67
2021/10/01 05:01:23;;;;;;;0.65;0.40;;;15.50;99.90;;;;;;5091474;28;20050;-67
2021/10/01 05:03:52;;;;;;;3.43;0.90;;;15.50;99.90;;;;;;5052953;28;20418;-68
2021/10/01 05:06:19;;;;;;;4.18;1.30;;;15.50;99.80;;;;;;5062951;28;20127;-67
2021/10/01 05:08:46;;;;;;;2.40;1.10;;;15.50;99.90;;;;;;5064533;28;20048;-66
2021/10/01 05:11:13;;;;;;;1.88;0.98;;;15.50;99.80;;;;;;5089991;28;20094;-67
2021/10/01 05:13:40;;;;;;;3.55;1.40;;;15.60;99.70;;;;;;5066561;28;20037;-68
2021/10/01 05:16:08;;;;;;;3.13;1.15;;;15.50;99.70;;;;;;5071353;28;20052;-68
2021/10/01 05:18:34;;;;;;;3.13;1.20;;;15.50;99.40;;;;;;5086621;28;20136;-66
2021/10/01 05:21:05;;;;;;;2.72;0.85;;;15.50;99.50;;;;;;5066310;28;20097;-67
2021/10/01 05:23:32;;;;;;;3.47;1.27;;;15.50;99.40;;;;;;5089357;28;20403;-67
2021/10/01 05:26:00;;;;;;;1.75;1.13;;;15.50;99.40;;;;;;5090701;28;20474;-67
2021/10/01 05:28:27;;;;;;;3.40;0.98;;;15.50;99.20;;;;;;5044447;28;20123;-66
2021/10/01 05:30:55;;;;;;;2.55;1.02;;;15.50;99.30;;;;;;5072475;28;20058;-67
2021/10/01 05:33:22;;;;;;;4.55;1.23;;;15.50;99.40;;;;;;5070278;28;20051;-67
2021/10/01 05:35:50;;;;;;;2.67;1.13;;;15.50;99.30;;;;;;5065349;28;20048;-67
2021/10/01 05:38:18;;;;;;;3.08;1.65;;;15.50;99.40;;;;;;5086680;28;20044;-67
2021/10/01 05:40:45;;;;;;;2.78;1.38;;;15.50;99.30;;;;;;5046917;28;20044;-68
2021/10/01 05:43:12;;;;;;;4.43;1.42;;;15.50;99.20;;;;;;5060520;28;20389;-69
2021/10/01 05:45:40;;;;;;;5.43;2.13;;;15.50;99.30;;;;;;5054410;28;20059;-68
2021/10/01 05:48:07;;;;;;;6.40;1.90;;;15.50;99.50;;;;;;5064462;28;20047;-67
2021/10/01 05:50:39;;;;;;;3.90;1.40;;;15.50;99.30;;;;;;5064577;28;21036;-67
2021/10/01 05:53:13;;;;;;;2.72;1.20;;;15.60;99.30;;;;;;5052038;28;20080;-67
2021/10/01 05:55:41;;;;;;;3.40;1.40;;;15.60;99.10;;;;;;5074513;28;20454;-67
2021/10/01 05:58:08;;;;;;;3.40;1.17;;;15.60;99.20;;;;;;5049536;28;20047;-67
2021/10/01 06:00:36;;;;;;;6.13;1.63;;;15.60;99.20;;;;;;5065542;28;20119;-67
2021/10/01 06:03:03;;;;;;;2.08;1.00;;;15.70;99.40;;;;;;5090850;28;20142;-67
2021/10/01 06:05:29;;;;;;;2.65;0.73;;;15.60;99.80;;;;;;5050988;28;20432;-67
2021/10/01 06:07:58;;;;;;;2.72;0.80;;;15.60;99.40;;;;;;5086247;28;20040;-67
2021/10/01 06:10:25;;;;;;;2.75;0.90;;;15.60;99.50;;;;;;5074249;28;20515;-67
2021/10/01 06:12:51;;;;;;;2.33;0.73;;;15.60;99.50;;;;;;5090307;28;20467;-67
2021/10/01 06:15:19;;;;;;;2.42;1.25;;;15.60;99.40;;;;;;5063754;28;20134;-68
2021/10/01 06:17:46;;;;;;;5.45;1.25;;;15.60;99.20;;;;;;5047572;28;20084;-67
2021/10/01 06:20:13;;;;;;;4.20;2.03;;;15.60;99.00;;;;;;5066266;28;20202;-67
2021/10/01 06:22:40;;;;;;;2.92;1.10;;;15.70;99.00;;;;;;5088294;28;20127;-67
2021/10/01 06:25:07;;;;;;;2.22;1.20;;;15.70;99.00;;;;;;5068684;28;20147;-67
2021/10/01 06:27:34;;;;;;;3.67;1.42;;;15.70;99.10;;;;;;5067647;28;20119;-68
2021/10/01 06:30:02;;;;;;;3.00;1.20;;;15.70;99.00;;;;;;5063875;28;20048;-68
2021/10/01 06:32:34;;;;;;;7.50;1.92;;;15.70;98.90;;;;;;5086886;28;20043;-67
2021/10/01 06:35:03;;;;;;;5.18;1.73;;;15.70;98.80;;;;;;5063717;28;20049;-69
2021/10/01 06:37:30;;;;;;;6.18;2.05;;;15.70;98.50;;;;;;5066600;28;20093;-69
2021/10/01 06:39:57;;;;;;;7.18;2.30;;;15.80;98.50;;;;;;5077842;28;20052;-66
2021/10/01 06:42:25;;;;;;;17.23;9.60;;;15.80;98.40;;;;;;5070676;28;20396;-67
2021/10/01 06:45:17;;;;;;;6.95;2.78;;;15.80;98.30;;;;;;5059578;28;20138;-68
2021/10/01 06:47:53;;;;;;;11.40;3.10;;;15.80;98.50;;;;;;5040205;28;20052;-70
2021/10/01 07:23:37;;;;;;;10.80;2.25;;;13.50;97.60;;;;;;5055022;28;20107;-65
2021/10/01 08:18:17;;;;;;;5.05;2.03;;;13.20;98.20;;;;;;5070992;28;20056;-65
2021/10/01 08:21:33;;;;;;;7.03;1.55;;;12.80;99.70;;;;;;5069389;28;20408;-65
2021/10/01 08:24:12;;;;;;;4.35;2.22;;;12.90;99.20;;;;;;5069865;28;20052;-65
2021/10/01 08:26:39;;;;;;;7.20;2.22;;;12.90;99.10;;;;;;5034825;28;20047;-66
2021/10/01 08:29:06;;;;;;;4.25;2.28;;;13.00;99.60;;;;;;5051786;28;20045;-68
2021/10/01 08:31:33;;;;;;;5.90;1.95;;;13.10;99.70;;;;;;5051787;28;20083;-69
2021/10/01 08:34:01;;;;;;;11.65;2.30;;;13.20;99.70;;;;;;5069989;28;20138;-67
2021/10/01 08:36:29;;;;;;;4.75;1.92;;;13.30;99.70;;;;;;5072719;28;20062;-65
2021/10/01 08:38:56;;;;;;;6.40;2.85;;;13.40;99.90;;;;;;5072922;28;20048;-65
2021/10/01 08:41:23;;;;;;;7.25;2.00;;;13.60;99.90;;;;;;5054996;28;20055;-66
2021/10/01 08:43:51;;;;;;;5.28;2.75;;;13.70;99.40;;;;;;5072994;28;20475;-65
2021/10/01 08:46:18;;;;;;;3.97;1.80;;;13.70;99.00;;;;;;5054961;28;20048;-66
2021/10/01 08:48:46;;;;;;;5.72;2.00;;;13.80;99.30;;;;;;5038197;28;20084;-66
2021/10/01 08:51:13;;;;;;;10.20;3.70;;;13.80;99.50;;;;;;5073148;28;20062;-65
2021/10/01 08:53:40;;;;;;;10.38;3.35;;;13.90;99.00;;;;;;5054988;28;20051;-66
2021/10/01 08:56:10;;;;;;;5.47;2.80;;;13.90;98.70;;;;;;5072678;28;20176;-66
2021/10/01 08:58:37;;;;;;;10.15;2.95;;;13.90;99.00;;;;;;5054265;28;20880;-67
2021/10/01 09:01:04;;;;;;;6.57;2.28;;;13.90;98.90;;;;;;5072241;28;20093;-66
2021/10/01 09:03:31;;;;;;;8.57;2.45;;;13.90;99.00;;;;;;5071540;28;20466;-66
2021/10/01 09:05:58;;;;;;;8.45;3.03;;;13.90;99.00;;;;;;5054897;28;20214;-66
2021/10/01 09:08:26;;;;;;;9.57;2.78;;;13.90;99.00;;;;;;5072282;28;20135;-66
2021/10/01 09:11:00;;;;;;;8.80;2.47;;;13.90;99.20;;;;;;5053824;28;20091;-66
2021/10/01 09:13:27;;;;;;;13.05;4.00;;;13.90;99.10;;;;;;5054703;28;20052;-66
2021/10/01 09:16:13;;;;;;;10.88;3.10;;;14.00;99.20;;;;;;5071761;28;20132;-66
2021/10/01 09:18:41;;;;;;;8.25;2.92;;;14.00;99.20;;;;;;5053365;28;20123;-66
2021/10/01 09:21:10;;;;;;;11.25;3.25;;;14.00;98.90;;;;;;5072144;28;20139;-66
2021/10/01 09:23:42;;;;;;;;;;;14.00;98.70;;;;;;5054925;28;20109;-67
2021/10/01 09:26:16;;;;;;;13.48;3.83;;;14.00;99.20;;;;;;5070758;28;20020;-66
2021/10/01 09:28:53;;;;;;;13.80;3.92;;;14.00;99.10;;;;;;5072216;28;20044;-66
2021/10/01 09:31:32;;;;;;;12.20;3.00;;;14.10;99.30;;;;;;5054445;28;20184;-67
2021/10/01 09:34:00;;;;;;;13.65;4.07;;;14.10;99.10;;;;;;5071713;28;20056;-66
2021/10/01 09:36:27;;;;;;;16.42;4.43;;;14.10;99.40;;;;;;5053212;28;20091;-66
2021/10/01 09:38:55;;;;;;;13.82;4.65;;;14.20;99.50;;;;;;5037499;28;20493;-66
2021/10/01 09:41:25;;;;;;;16.85;4.32;;;14.20;99.30;;;;;;5059026;28;20135;-66
2021/10/01 09:44:09;;;;;;;9.38;4.10;;;14.30;99.20;;;;;;5062338;28;20056;-66
2021/10/01 09:46:40;;;;;;;13.38;4.30;;;14.40;99.30;;;;;;5069133;28;20052;-66
2021/10/01 09:49:07;;;;;;;15.80;5.03;;;14.50;99.30;;;;;;5049786;28;20048;-67
2021/10/01 09:51:35;;;;;;;20.48;6.43;;;14.50;98.80;;;;;;5052452;28;20044;-67
2021/10/01 09:54:11;;;;;;;14.10;4.78;;;14.50;98.80;;;;;;5052686;28;20226;-68
2021/10/01 09:56:38;;;;;;;19.88;5.13;;;14.50;99.10;;;;;;5072422;28;20473;-68
2021/10/01 09:59:15;;;;;;;18.63;5.18;;;14.60;99.30;;;;;;5079820;28;20572;-68
2021/10/01 10:02:11;;;;;;;17.88;4.97;;;14.60;99.20;;;;;;5034677;28;20071;-67
2021/10/01 10:04:43;;;;;;;19.45;5.13;;;14.80;98.90;;;;;;5071695;28;20048;-68
2021/10/01 10:07:36;;;;;;;16.10;5.13;;;14.90;99.20;;;;;;5069250;28;20047;-68
2021/10/01 10:10:05;;;;;;;16.60;4.90;;;15.00;99.40;;;;;;5033674;28;20087;-67
2021/10/01 10:12:36;;;;;;;20.30;5.68;;;15.10;98.50;;;;;;5039252;28;20098;-68
2021/10/01 10:15:05;;;;;;;20.70;5.00;;;15.10;99.00;;;;;;5064564;28;20052;-67
2021/10/01 10:17:32;;;;;;;13.23;5.33;;;15.20;98.00;;;;;;5076429;28;20048;-68
2021/10/01 10:20:02;;;;;;;13.73;4.60;;;15.20;97.90;;;;;;5058192;28;20441;-67
2021/10/01 10:22:30;;;;;;;18.08;5.55;;;15.20;98.70;;;;;;5041594;28;20079;-67
2021/10/01 10:24:57;;;;;;;151.95;135.35;;;15.20;98.20;;;;;;5069150;28;20048;-66
2021/10/01 10:27:25;;;;;;;17.60;9.73;;;15.20;97.90;;;;;;5051917;28;20131;-75
2021/10/01 10:29:52;;;;;;;19.02;6.82;;;15.20;98.30;;;;;;5078945;28;20109;-77
2021/10/01 10:32:22;;;;;;;24.35;4.97;;;15.20;98.10;;;;;;5060620;28;20059;-69
2021/10/01 10:34:50;;;;;;;14.48;4.53;;;15.20;98.20;;;;;;5087027;28;20055;-69
2021/10/01 10:37:17;;;;;;;17.95;4.05;;;15.20;98.10;;;;;;5078372;28;20052;-69
2021/10/01 10:39:48;;;;;;;13.60;4.28;;;15.20;98.40;;;;;;5056419;28;20116;-66
2021/10/01 10:42:21;;;;;;;21.98;4.40;;;15.40;98.90;;;;;;5088464;28;20052;-67
2021/10/01 10:44:55;;;;;;;9.98;4.53;;;15.50;98.00;;;;;;5071444;28;20136;-66
2021/10/01 10:47:53;;;;;;;11.70;4.43;;;15.60;98.10;;;;;;5061054;28;20526;-66
2021/10/01 10:50:31;;;;;;;10.85;4.70;;;15.70;98.10;;;;;;5068618;28;20040;-65
2021/10/01 10:53:05;;;;;;;10.77;3.75;;;15.70;98.40;;;;;;5036782;28;20554;-66
2021/10/01 10:55:53;;;;;;;14.40;4.40;;;15.70;96.30;;;;;;5078011;28;20080;-70
2021/10/01 10:58:30;;;;;;;11.25;4.03;;;15.70;96.90;;;;;;5070184;28;20086;-71
2021/10/01 11:01:25;;;;;;;15.32;3.90;;;15.80;97.30;;;;;;5065691;28;20474;-69
2021/10/01 11:04:27;;;;;;;24.38;13.43;;;16.00;97.50;;;;;;5065402;28;20047;-69
2021/10/01 11:06:56;;;;;;;10.02;3.97;;;16.10;95.80;;;;;;5063248;28;20052;-70
2021/10/01 11:09:24;;;;;;;9.88;3.80;;;16.20;95.50;;;;;;5085268;28;20071;-68
2021/10/01 11:11:57;;;;;;;11.27;3.75;;;16.20;95.50;;;;;;5037131;28;20127;-69
2021/10/01 11:14:26;;;;;;;9.05;3.08;;;16.30;96.00;;;;;;5064025;28;20051;-70
2021/10/01 11:16:52;;;;;;;11.77;3.78;;;16.30;94.40;;;;;;5051216;28;20083;-70
2021/10/01 11:19:38;;;;;;;14.10;4.00;;;16.30;94.50;;;;;;5069444;28;20076;-70
2021/10/01 11:22:28;;;;;;;11.05;4.10;;;16.30;94.70;;;;;;5079134;28;20127;-69
2021/10/01 11:25:14;;;;;;;13.27;6.20;;;16.40;94.00;;;;;;5084261;28;20078;-69
2021/10/01 11:27:53;;;;;;;10.95;4.25;;;16.40;93.40;;;;;;5083561;28;20513;-69
2021/10/01 11:30:21;;;;;;;11.20;3.38;;;16.40;93.20;;;;;;5066031;28;20040;-71
2021/10/01 11:32:48;;;;;;;10.10;3.33;;;16.50;93.20;;;;;;5063128;28;20036;-69
2021/10/01 11:35:16;;;;;;;9.23;3.33;;;16.50;94.00;;;;;;5056630;28;20382;-74
2021/10/01 11:37:48;;;;;;;58.45;52.13;;;16.60;93.10;;;;;;5055165;28;20488;-68
2021/10/01 11:40:22;;;;;;;15.15;8.00;;;16.60;93.20;;;;;;5059834;28;20098;-69
2021/10/01 11:42:51;;;;;;;7.43;3.38;;;16.90;92.90;;;;;;5089810;28;20079;-69
2021/10/01 11:45:35;;;;;;;13.48;3.35;;;16.90;93.00;;;;;;5039526;28;20368;-70
2021/10/01 11:48:05;;;;;;;8.63;3.38;;;17.00;92.40;;;;;;5084243;28;20053;-69
2021/10/01 11:50:42;;;;;;;11.32;3.38;;;17.00;90.90;;;;;;5039272;28;20050;-70
2021/10/01 11:53:26;;;;;;;10.57;2.97;;;16.90;91.00;;;;;;5068547;28;20044;-70
2021/10/01 11:55:58;;;;;;;10.90;3.78;;;16.90;91.20;;;;;;5072090;28;20062;-70
2021/10/01 11:58:27;;;;;;;7.00;2.65;;;17.00;91.80;;;;;;5069412;28;20139;-71
2021/10/01 12:00:55;;;;;;;9.95;3.10;;;17.00;92.00;;;;;;5053176;28;20127;-70
2021/10/01 12:03:24;;;;;;;8.90;2.97;;;17.00;92.20;;;;;;5032402;28;20041;-72
2021/10/01 12:05:53;;;;;;;11.07;2.55;;;17.00;92.20;;;;;;5064617;28;20417;-70
2021/10/01 12:08:22;;;;;;;9.53;3.33;;;17.00;91.80;;;;;;5036847;28;20044;-70
2021/10/01 12:10:52;;;;;;;6.65;2.50;;;17.00;91.10;;;;;;5073134;28;20091;-70
2021/10/01 12:13:35;;;;;;;9.10;2.47;;;17.10;91.00;;;;;;5058610;28;20048;-70
2021/10/01 12:16:05;;;;;;;7.32;2.80;;;17.20;90.30;;;;;;5071816;28;20052;-70
2021/10/01 12:18:45;;;;;;;7.82;2.42;;;17.20;91.50;;;;;;5073552;28;20432;-71
2021/10/01 12:21:21;;;;;;;8.45;2.80;;;17.30;91.80;;;;;;5073717;28;20052;-70
2021/10/01 12:23:56;;;;;;;8.55;2.22;;;17.40;90.60;;;;;;5055401;28;20040;-70
2021/10/01 12:26:25;;;;;;;6.50;2.38;;;17.40;89.60;;;;;;5072725;28;20127;-70
2021/10/01 12:29:37;;;;;;;8.05;2.65;;;17.40;90.70;;;;;;5073286;28;20540;-70
2021/10/01 12:32:04;;;;;;;9.15;2.53;;;17.40;90.20;;;;;;5069968;28;20076;-71
2021/10/01 12:34:35;;;;;;;6.53;2.30;;;17.40;88.70;;;;;;5055287;28;20083;-70
2021/10/01 12:37:08;;;;;;;6.53;2.05;;;17.40;87.20;;;;;;5055631;28;20091;-70
2021/10/01 12:39:40;;;;;;;6.97;1.80;;;17.40;87.40;;;;;;5055818;28;20127;-70
2021/10/01 12:42:14;;;;;;;6.68;1.80;;;17.40;87.30;;;;;;5072998;28;20085;-71
2021/10/01 12:44:42;;;;;;;8.40;3.70;;;17.50;85.50;;;;;;5054663;28;20507;-70
2021/10/01 12:47:15;;;;;;;4.30;1.67;;;17.50;87.50;;;;;;5055081;28;20148;-71
2021/10/01 12:49:43;;;;;;;4.18;1.55;;;17.50;84.80;;;;;;5055221;28;20075;-71
2021/10/01 12:52:19;;;;;;;8.65;3.00;;;17.50;83.90;;;;;;5055477;28;20127;-70
2021/10/01 12:54:51;;;;;;;6.28;2.38;;;17.50;83.00;;;;;;5054376;28;20048;-70
2021/10/01 12:57:29;;;;;;;6.38;1.70;;;17.50;85.80;;;;;;5054244;28;20055;-71
2021/10/01 12:59:58;;;;;;;4.07;1.50;;;17.50;81.20;;;;;;5070960;28;20188;-72
2021/10/01 13:02:34;;;;;;;4.78;1.75;;;17.40;81.20;;;;;;5070153;28;20600;-70
2021/10/01 13:05:09;;;;;;;1.42;0.98;;;17.30;82.60;;;;;;5070998;28;20055;-70
2021/10/01 13:07:39;;;;;;;3.28;1.25;;;17.20;83.10;;;;;;5053230;28;20048;-70
2021/10/01 13:10:13;;;;;;;4.03;1.77;;;17.00;84.00;;;;;;5070462;28;20044;-70
2021/10/01 13:13:13;;;;;;;5.70;1.60;;;17.00;83.50;;;;;;5072387;28;20101;-70
2021/10/01 13:15:47;;;;;;;4.28;1.55;;;16.90;84.10;;;;;;5072112;28;20049;-70
2021/10/01 13:18:19;;;;;;;3.63;1.67;;;16.80;83.70;;;;;;5071045;28;20052;-70
2021/10/01 13:21:02;;;;;;;3.97;1.30;;;16.80;85.60;;;;;;5054235;28;20056;-70
2021/10/01 13:23:29;;;;;;;4.32;1.33;;;16.70;85.90;;;;;;5072024;28;20148;-70
2021/10/01 13:26:18;;;;;;;6.55;1.73;;;16.80;86.50;;;;;;5072133;28;20471;-70
2021/10/01 13:28:48;;;;;;;5.80;1.67;;;16.90;83.30;;;;;;5072366;28;20144;-70
2021/10/01 13:31:16;;;;;;;4.22;1.98;;;17.00;84.70;;;;;;5054286;28;20052;-71
2021/10/01 13:33:43;;;;;;;4.65;2.13;;;17.10;85.00;;;;;;5071917;28;20049;-70
2021/10/01 13:36:10;;;;;;;4.35;2.03;;;17.20;83.40;;;;;;5054614;28;20455;-70
2021/10/01 13:38:38;;;;;;;5.65;1.73;;;17.20;85.50;;;;;;5071637;28;20136;-70
2021/10/01 13:41:06;;;;;;;3.47;1.67;;;17.30;81.80;;;;;;5054575;28;20073;-70
2021/10/01 13:43:35;;;;;;;3.33;1.52;;;17.30;82.30;;;;;;5070298;28;20044;-70
2021/10/01 13:46:02;;;;;;;4.55;1.92;;;17.30;81.90;;;;;;5071963;28;20044;-71
2021/10/01 13:48:30;;;;;;;6.68;1.60;;;17.40;82.70;;;;;;5070629;28;20084;-71
2021/10/01 13:50:57;;;;;;;4.68;1.70;;;17.40;82.30;;;;;;5053590;28;20089;-72
2021/10/01 13:53:24;;;;;;;4.22;1.95;;;17.30;82.40;;;;;;5054203;28;20063;-71
2021/10/01 13:55:51;;;;;;;5.10;2.08;;;17.20;84.20;;;;;;5058875;28;20051;-70
2021/10/01 13:58:18;;;;;;;5.72;1.45;;;17.10;81.90;;;;;;5071672;28;20104;-71
2021/10/01 14:00:45;;;;;;;7.20;1.60;;;17.10;82.10;;;;;;5052856;28;20089;-70
2021/10/01 14:03:15;;;;;;;3.97;1.73;;;17.10;84.80;;;;;;5053903;28;20044;-70
2021/10/01 14:05:42;;;;;;;7.32;2.03;;;17.10;83.10;;;;;;5066441;28;20051;-71
2021/10/01 14:08:12;;;;;;;5.45;1.50;;;17.20;80.90;;;;;;5053276;28;20131;-70
2021/10/01 14:10:39;;;;;;;6.45;2.38;;;17.30;81.80;;;;;;5070970;28;20057;-70
2021/10/01 14:13:11;;;;;;;6.05;2.53;;;17.30;83.50;;;;;;5070758;28;20048;-70
2021/10/01 14:15:42;;;;;;;7.13;2.92;;;17.40;81.40;;;;;;5054558;28;20074;-71
2021/10/01 14:18:13;;;;;;;4.03;1.67;;;17.30;78.80;;;;;;5070334;28;20381;-71
2021/10/01 14:20:40;;;;;;;5.40;1.85;;;17.30;80.00;;;;;;5070470;28;20468;-71
2021/10/01 14:23:08;;;;;;;5.10;1.58;;;17.20;80.30;;;;;;5052843;28;20188;-71
2021/10/01 14:25:38;;;;;;;3.78;1.52;;;17.20;80.80;;;;;;5052985;28;20576;-71
2021/10/01 14:28:06;;;;;;;4.20;1.85;;;17.10;81.30;;;;;;5070870;28;20522;-70
2021/10/01 14:30:35;;;;;;;7.30;2.42;;;16.90;82.70;;;;;;5070506;28;20052;-71
2021/10/01 14:33:02;;;;;;;8.23;2.00;;;16.70;85.30;;;;;;5055369;28;20050;-70